Joy — WDJ7558 — position and weather

sailwx.info

Track history (hours):
 
Tides and Currents Weather Stations Pressure Air Temp Water Temp Dewpoint Dewpoint Depression Visibility Wind Speed Wind Dir Waves Ship Positions

Joy

Owner: Cros, Francois J, Miami, FL. More information available from US FCC via Universal Licensing System and Coast Guard Vessel Documentation Center.

Last reported at 2018-Aug-02 19:32 UTC. Time now 2018-Aug-17 11:43 UTC.
Position N 14°18' W 060°56'.
Warning: this ship's position is 14 days out of date.

Type: Sailing vessel. MMSI: 368007920.

Date/timePositionNaut miles runAvg speedWind from/ knotsBaromVisibWave heightAir tempDewpointWater temp
2018-Aug-02 19:32N 14°18' W 060°56'1 6.8
2018-Aug-02 19:26N 14°19' W 060°56'3 7.6
2018-Aug-02 19:00N 14°22' W 060°55'4 7.4
2018-Aug-02 18:30N 14°26' W 060°54'1 1.1
2018-Aug-02 17:56N 14°26' W 060°53'0 0.0
2018-Aug-02 17:29N 14°26' W 060°53'0 0.0
2018-Aug-02 16:59N 14°26' W 060°53'0 0.0
2018-Aug-02 16:29N 14°26' W 060°53'0 0.0
2018-Aug-02 15:59N 14°26' W 060°53'0 0.0
2018-Aug-02 15:30N 14°26' W 060°53'2 4.1
2018-Aug-02 15:00N 14°28' W 060°52'0 0.4
2018-Aug-02 14:29N 14°28' W 060°52'0 0.7
2018-Aug-02 13:57N 14°28' W 060°52'0 0.0
2018-Aug-02 13:30N 14°28' W 060°52'0 0.0
2018-Aug-02 13:00N 14°28' W 060°52'0 0.0
2018-Aug-02 12:30N 14°28' W 060°52'0 0.0
2018-Aug-02 12:00N 14°28' W 060°52'0 0.0
2018-Aug-02 11:30N 14°28' W 060°52'0 0.0
2018-Aug-02 11:00N 14°28' W 060°52'0 0.0
2018-Aug-02 10:27N 14°28' W 060°52'0 0.0
2018-Aug-02 09:57N 14°28' W 060°52'0 0.0
2018-Aug-02 09:30N 14°28' W 060°52'0 0.0
2018-Aug-02 08:57N 14°28' W 060°52'0 0.0
2018-Aug-02 08:27N 14°28' W 060°52'0 0.0
2018-Aug-02 08:00N 14°28' W 060°52'0 0.0
2018-Aug-02 07:30N 14°28' W 060°52'0 0.0
2018-Aug-02 07:00N 14°28' W 060°52'0 0.0
2018-Aug-02 06:27N 14°28' W 060°52'0 0.0
2018-Aug-02 05:57N 14°28' W 060°52'0 0.0
2018-Aug-02 05:27N 14°28' W 060°52'0 0.0
2018-Aug-02 04:54N 14°28' W 060°52'0 0.0
2018-Aug-02 04:27N 14°28' W 060°52'0 0.0
2018-Aug-02 04:00N 14°28' W 060°52'0 0.0
2018-Aug-02 03:30N 14°28' W 060°52'0 0.0
2018-Aug-02 02:57N 14°28' W 060°52'0 0.0
2018-Aug-02 02:30N 14°28' W 060°52'0 0.0
2018-Aug-02 02:00N 14°28' W 060°52'0 0.0
2018-Aug-02 01:30N 14°28' W 060°52'0 0.0
2018-Aug-02 00:57N 14°28' W 060°52'0 0.0
2018-Aug-02 00:30N 14°28' W 060°52'0 0.0
2018-Aug-02 00:00N 14°28' W 060°52'0 0.0
2018-Aug-01 23:30N 14°28' W 060°52'0 0.0
2018-Aug-01 22:57N 14°28' W 060°52'0 0.0
2018-Aug-01 22:27N 14°28' W 060°52'0 0.0
2018-Aug-01 22:00N 14°28' W 060°52'0 0.0
2018-Aug-01 21:27N 14°28' W 060°52'0 0.0
2018-Aug-01 21:00N 14°28' W 060°52'0 0.0
2018-Aug-01 20:30N 14°28' W 060°52'0 0.0
2018-Aug-01 20:00N 14°28' W 060°52'0 0.0
2018-Aug-01 19:30N 14°28' W 060°52'0 0.0
2018-Aug-01 19:00N 14°28' W 060°52'0 0.0
2018-Aug-01 18:27N 14°28' W 060°52'0 0.0
2018-Aug-01 18:00N 14°28' W 060°52'0 0.0
2018-Aug-01 17:30N 14°28' W 060°52'0 0.0
2018-Aug-01 16:57N 14°28' W 060°52'0 0.0
2018-Aug-01 16:30N 14°28' W 060°52'0 0.0
2018-Aug-01 16:00N 14°28' W 060°52'0 0.0
2018-Aug-01 15:30N 14°28' W 060°52'0 0.0
2018-Aug-01 15:00N 14°28' W 060°52'0 0.0
2018-Aug-01 13:57N 14°28' W 060°52'0 0.0
2018-Aug-01 13:30N 14°28' W 060°52'0 0.0
2018-Aug-01 12:57N 14°28' W 060°52'0 0.0
2018-Aug-01 12:30N 14°28' W 060°52'0 0.0
2018-Aug-01 12:00N 14°28' W 060°52'0 0.0
2018-Aug-01 11:30N 14°28' W 060°52'0 0.0
2018-Aug-01 11:00N 14°28' W 060°52'0 0.0
2018-Aug-01 10:30N 14°28' W 060°52'0 0.0
2018-Aug-01 10:00N 14°28' W 060°52'0 0.0
2018-Aug-01 09:30N 14°28' W 060°52'0 0.0
2018-Aug-01 09:00N 14°28' W 060°52'0 0.0
2018-Aug-01 08:27N 14°28' W 060°52'0 0.0
2018-Aug-01 08:00N 14°28' W 060°52'0 0.0
2018-Aug-01 07:30N 14°28' W 060°52'0 0.0
2018-Aug-01 07:00N 14°28' W 060°52'0 0.0
2018-Aug-01 06:30N 14°28' W 060°52'0 0.0
2018-Aug-01 06:00N 14°28' W 060°52'0 0.0
2018-Aug-01 05:24N 14°28' W 060°52'0 0.0
2018-Aug-01 04:54N 14°28' W 060°52'0 0.0
2018-Aug-01 04:27N 14°28' W 060°52'0 0.0
2018-Aug-01 04:00N 14°28' W 060°52'0 0.0
2018-Aug-01 03:27N 14°28' W 060°52'0 0.0
2018-Aug-01 02:57N 14°28' W 060°52'0 0.0
2018-Aug-01 02:30N 14°28' W 060°52'0 0.0
2018-Aug-01 01:54N 14°28' W 060°52'0 0.0
2018-Aug-01 01:30N 14°28' W 060°52'0 0.0
2018-Aug-01 01:00N 14°28' W 060°52'0 0.0
2018-Jul-31 22:30N 14°28' W 060°52'0 0.0
2018-Jul-31 22:00N 14°28' W 060°52'0 0.0
2018-Jul-31 21:30N 14°28' W 060°52'0 0.0
2018-Jul-31 21:00N 14°28' W 060°52'0 0.0
2018-Jul-31 20:30N 14°28' W 060°52'0 0.0
2018-Jul-31 20:00N 14°28' W 060°52'0 0.0
2018-Jul-31 19:30N 14°28' W 060°52'0 0.0
2018-Jul-31 18:57N 14°28' W 060°52'0 0.0
2018-Jul-31 18:30N 14°28' W 060°52'0 0.0
2018-Jul-31 18:00N 14°28' W 060°52'0 0.0
2018-Jul-31 17:30N 14°28' W 060°52'0 0.0
2018-Jul-31 17:00N 14°28' W 060°52'0 0.0
2018-Jul-31 16:30N 14°28' W 060°52'0 0.0
2018-Jul-31 16:00N 14°28' W 060°52'0 0.0
2018-Jul-31 15:27N 14°28' W 060°52'0 0.0
2018-Jul-31 15:00N 14°28' W 060°52'0 0.0
2018-Jul-31 14:27N 14°28' W 060°52'0 0.0
2018-Jul-31 14:00N 14°28' W 060°52'0 0.0
2018-Jul-31 13:30N 14°28' W 060°52'0 0.0
2018-Jul-31 12:45N 14°28' W 060°52'0 0.0
2018-Jul-31 12:30N 14°28' W 060°52'0 0.0
2018-Jul-31 12:00N 14°28' W 060°52'0 0.0
2018-Jul-31 11:27N 14°28' W 060°52'0 0.0
2018-Jul-31 11:00N 14°28' W 060°52'0 0.0
2018-Jul-31 10:27N 14°28' W 060°52'0 0.0
2018-Jul-31 09:57N 14°28' W 060°52'0 0.0
2018-Jul-31 09:15N 14°28' W 060°52'0 0.0
2018-Jul-31 08:48N 14°28' W 060°52'0 0.0
2018-Jul-31 08:30N 14°28' W 060°52'0 0.0
2018-Jul-31 07:57N 14°28' W 060°52'0 0.0
2018-Jul-31 07:30N 14°28' W 060°52'0 0.0
2018-Jul-31 06:57N 14°28' W 060°52'0 0.0
2018-Jul-31 06:30N 14°28' W 060°52'0 0.0
2018-Jul-31 06:00N 14°28' W 060°52'0 0.0
2018-Jul-31 05:27N 14°28' W 060°52'0 0.0
2018-Jul-31 05:00N 14°28' W 060°52'0 0.0
2018-Jul-31 04:30N 14°28' W 060°52'0 0.0
2018-Jul-31 03:57N 14°28' W 060°52'0 0.0
2018-Jul-31 03:27N 14°28' W 060°52'0 0.0
2018-Jul-31 03:00N 14°28' W 060°52'0 0.0
2018-Jul-31 02:30N 14°28' W 060°52'0 0.0
2018-Jul-31 02:00N 14°28' W 060°52'0 0.0
2018-Jul-31 01:30N 14°28' W 060°52'0 0.0
2018-Jul-31 01:00N 14°28' W 060°52'0 0.0
2018-Jul-31 00:30N 14°28' W 060°52'0 0.0
2018-Jul-30 23:57N 14°28' W 060°52'0 0.0
2018-Jul-30 23:30N 14°28' W 060°52'0 0.0
2018-Jul-30 23:00N 14°28' W 060°52'0 0.0
2018-Jul-30 22:27N 14°28' W 060°52'0 0.0
2018-Jul-30 22:00N 14°28' W 060°52'0 0.0
2018-Jul-30 21:30N 14°28' W 060°52'0 0.0
2018-Jul-30 20:54N 14°28' W 060°52'0 0.0
2018-Jul-30 20:30N 14°28' W 060°52'0 0.0
2018-Jul-30 20:00N 14°28' W 060°52'0 0.0
2018-Jul-30 19:30N 14°28' W 060°52'0 0.0
2018-Jul-30 19:00N 14°28' W 060°52'0 0.0
2018-Jul-30 18:30N 14°28' W 060°52'0 0.0
2018-Jul-30 18:00N 14°28' W 060°52'0 0.0
2018-Jul-30 17:30N 14°28' W 060°52'0 0.0
2018-Jul-30 17:00N 14°28' W 060°52'0 0.0
2018-Jul-30 16:30N 14°28' W 060°52'0 0.0
2018-Jul-30 15:45N 14°28' W 060°52'0 0.0
2018-Jul-30 15:30N 14°28' W 060°52'0 0.0
2018-Jul-30 15:00N 14°28' W 060°52'0 0.0
2018-Jul-30 14:30N 14°28' W 060°52'0 0.0
2018-Jul-30 14:00N 14°28' W 060°52'0 0.0
2018-Jul-30 13:30N 14°28' W 060°52'0 0.0
2018-Jul-30 13:00N 14°28' W 060°52'0 0.0
2018-Jul-30 12:30N 14°28' W 060°52'0 0.0
2018-Jul-30 12:00N 14°28' W 060°52'0 0.0
2018-Jul-30 11:30N 14°28' W 060°52'0 0.0
2018-Jul-30 10:57N 14°28' W 060°52'0 0.0
2018-Jul-30 10:27N 14°28' W 060°52'0 0.0
2018-Jul-30 10:00N 14°28' W 060°52'0 0.0
2018-Jul-30 09:30N 14°28' W 060°52'0 0.0
2018-Jul-30 08:57N 14°28' W 060°52'0 0.0
2018-Jul-30 08:30N 14°28' W 060°52'0 0.0
2018-Jul-30 08:00N 14°28' W 060°52'0 0.0
2018-Jul-30 07:30N 14°28' W 060°52'0 0.0
2018-Jul-30 07:00N 14°28' W 060°52'0 0.0
2018-Jul-30 06:27N 14°28' W 060°52'0 0.0
2018-Jul-30 06:00N 14°28' W 060°52'0 0.0
2018-Jul-30 05:30N 14°28' W 060°52'0 0.0
2018-Jul-30 05:00N 14°28' W 060°52'0 0.0
2018-Jul-30 04:30N 14°28' W 060°52'0 0.0
2018-Jul-30 04:00N 14°28' W 060°52'0 0.0
2018-Jul-30 03:30N 14°28' W 060°52'0 0.0
2018-Jul-30 03:00N 14°28' W 060°52'0 0.0
2018-Jul-30 02:30N 14°28' W 060°52'0 0.0
2018-Jul-30 02:00N 14°28' W 060°52'0 0.0
2018-Jul-30 01:30N 14°28' W 060°52'0 0.0
2018-Jul-30 00:57N 14°28' W 060°52'0 0.0
2018-Jul-30 00:30N 14°28' W 060°52'0 0.0
2018-Jul-30 00:00N 14°28' W 060°52'0 0.0
2018-Jul-29 23:27N 14°28' W 060°52'0 0.0
2018-Jul-29 23:00N 14°28' W 060°52'0 0.0
2018-Jul-29 22:27N 14°28' W 060°52'0 0.0
2018-Jul-29 22:00N 14°28' W 060°52'0 0.0
2018-Jul-29 21:30N 14°28' W 060°52'0 0.0
2018-Jul-29 21:00N 14°28' W 060°52'1 2.9
2018-Jul-29 20:30N 14°27' W 060°54'1 1.4
2018-Jul-29 19:58N 14°26' W 060°53'0 0.0
2018-Jul-29 19:28N 14°26' W 060°53'0 0.0
2018-Jul-29 18:58N 14°26' W 060°53'0 0.0
2018-Jul-29 18:28N 14°26' W 060°53'0 0.0
2018-Jul-29 17:58N 14°26' W 060°53'0 0.0
2018-Jul-29 17:28N 14°26' W 060°53'0 0.0
2018-Jul-29 16:55N 14°26' W 060°53'0 0.0
2018-Jul-29 16:28N 14°26' W 060°53'0 0.0
2018-Jul-29 15:58N 14°26' W 060°53'0 0.0
2018-Jul-29 15:28N 14°26' W 060°53'0 0.0
2018-Jul-29 14:58N 14°26' W 060°53'0 0.0
2018-Jul-29 13:58N 14°26' W 060°53'0 0.0
2018-Jul-29 13:28N 14°26' W 060°53'0 0.0
2018-Jul-29 12:58N 14°26' W 060°53'0 0.0
2018-Jul-29 12:28N 14°26' W 060°53'0 0.0
2018-Jul-29 11:58N 14°26' W 060°53'0 0.0
2018-Jul-29 11:28N 14°26' W 060°53'0 0.0
2018-Jul-29 10:58N 14°26' W 060°53'0 0.0
2018-Jul-29 10:28N 14°26' W 060°53'0 0.0
2018-Jul-29 09:58N 14°26' W 060°53'0 0.0
2018-Jul-29 09:25N 14°26' W 060°53'0 0.0
2018-Jul-29 08:58N 14°26' W 060°53'0 0.0
2018-Jul-29 08:28N 14°26' W 060°53'0 0.0
2018-Jul-29 07:55N 14°26' W 060°53'0 0.0
2018-Jul-29 07:28N 14°26' W 060°53'0 0.0
2018-Jul-29 06:58N 14°26' W 060°53'0 0.0
2018-Jul-29 06:28N 14°26' W 060°53'0 0.0
2018-Jul-29 05:58N 14°26' W 060°53'0 0.0
2018-Jul-29 05:28N 14°26' W 060°53'0 0.0
2018-Jul-29 04:58N 14°26' W 060°53'0 0.0
2018-Jul-29 04:28N 14°26' W 060°53'0 0.0
2018-Jul-29 03:58N 14°26' W 060°53'0 0.0
2018-Jul-29 03:28N 14°26' W 060°53'0 0.0
2018-Jul-29 02:58N 14°26' W 060°53'0 0.0
2018-Jul-29 02:25N 14°26' W 060°53'0 0.0
2018-Jul-29 01:55N 14°26' W 060°53'0 0.0
2018-Jul-29 01:28N 14°26' W 060°53'0 0.0
2018-Jul-29 00:58N 14°26' W 060°53'0 0.0
2018-Jul-29 00:28N 14°26' W 060°53'0 0.0
2018-Jul-28 23:58N 14°26' W 060°53'0 0.0
2018-Jul-28 23:25N 14°26' W 060°53'0 0.0
2018-Jul-28 22:58N 14°26' W 060°53'0 0.0
2018-Jul-28 22:28N 14°26' W 060°53'0 0.0
2018-Jul-28 21:55N 14°26' W 060°53'0 0.0
2018-Jul-28 21:28N 14°26' W 060°53'0 0.0
2018-Jul-28 20:58N 14°26' W 060°53'0 0.0
2018-Jul-28 20:28N 14°26' W 060°53'0 0.0
2018-Jul-28 19:58N 14°26' W 060°53'0 0.0
2018-Jul-28 19:28N 14°26' W 060°53'0 0.0
2018-Jul-28 18:58N 14°26' W 060°53'0 0.0
2018-Jul-28 18:28N 14°26' W 060°53'0 0.0
2018-Jul-28 17:58N 14°26' W 060°53'0 0.0
2018-Jul-28 17:28N 14°26' W 060°53'0 0.0
2018-Jul-28 16:58N 14°26' W 060°53'0 0.0
2018-Jul-28 16:28N 14°26' W 060°53'0 0.0
2018-Jul-28 15:46N 14°26' W 060°53'1 3.1
2018-Jul-28 15:30N 14°27' W 060°54'1 2.8
2018-Jul-28 15:00N 14°28' W 060°52'0 0.0
2018-Jul-28 14:30N 14°28' W 060°52'0 0.0
2018-Jul-28 13:58N 14°28' W 060°52'0 0.0
2018-Jul-28 13:30N 14°28' W 060°52'0 0.0
2018-Jul-28 13:00N 14°28' W 060°52'0 0.0
2018-Jul-28 12:30N 14°28' W 060°52'0 0.0
2018-Jul-28 12:00N 14°28' W 060°52'0 0.0
2018-Jul-28 11:31N 14°28' W 060°52'0 0.0
2018-Jul-28 11:00N 14°28' W 060°52'0 0.0
2018-Jul-28 10:30N 14°28' W 060°52'0 0.0
2018-Jul-28 10:00N 14°28' W 060°52'0 0.0
2018-Jul-28 09:30N 14°28' W 060°52'0 0.0
2018-Jul-28 09:01N 14°28' W 060°52'0 0.0
2018-Jul-28 08:25N 14°28' W 060°52'0 0.0
2018-Jul-28 08:00N 14°28' W 060°52'0 0.0
2018-Jul-28 07:31N 14°28' W 060°52'0 0.0
2018-Jul-28 07:00N 14°28' W 060°52'0 0.0
2018-Jul-28 06:30N 14°28' W 060°52'0 0.0
2018-Jul-28 06:00N 14°28' W 060°52'0 0.0
2018-Jul-28 05:30N 14°28' W 060°52'0 0.0
2018-Jul-28 05:00N 14°28' W 060°52'0 0.0
2018-Jul-28 04:30N 14°28' W 060°52'0 0.0
2018-Jul-28 04:00N 14°28' W 060°52'0 0.0
2018-Jul-28 03:30N 14°28' W 060°52'0 0.0
2018-Jul-28 03:00N 14°28' W 060°52'0 0.0
2018-Jul-28 02:30N 14°28' W 060°52'0 0.0
2018-Jul-28 02:00N 14°28' W 060°52'0 0.0
2018-Jul-28 01:21N 14°28' W 060°52'0 0.0
2018-Jul-28 01:00N 14°28' W 060°52'0 0.0
2018-Jul-28 00:30N 14°28' W 060°52'0 0.0
2018-Jul-28 00:00N 14°28' W 060°52'0 0.0
2018-Jul-27 23:30N 14°28' W 060°52'0 0.0
2018-Jul-27 23:00N 14°28' W 060°52'0 0.0
2018-Jul-27 22:30N 14°28' W 060°52'0 0.0
2018-Jul-27 22:00N 14°28' W 060°52'0 0.0
2018-Jul-27 21:30N 14°28' W 060°52'0 0.0
2018-Jul-27 21:00N 14°28' W 060°52'0 0.0
2018-Jul-27 20:30N 14°28' W 060°52'0 0.0
2018-Jul-27 20:00N 14°28' W 060°52'0 0.0
2018-Jul-27 19:30N 14°28' W 060°52'0 0.0
2018-Jul-27 18:57N 14°28' W 060°52'0 0.0
2018-Jul-27 18:27N 14°28' W 060°52'0 0.0
2018-Jul-27 17:54N 14°28' W 060°52'0 0.0
2018-Jul-27 17:30N 14°28' W 060°52'0 0.0
2018-Jul-27 17:00N 14°28' W 060°52'0 0.0
2018-Jul-27 16:30N 14°28' W 060°52'0 0.0
2018-Jul-27 16:00N 14°28' W 060°52'0 0.0
2018-Jul-27 15:30N 14°28' W 060°52'0 0.0
2018-Jul-27 15:00N 14°28' W 060°52'0 0.0
2018-Jul-27 14:30N 14°28' W 060°52'0 0.0
2018-Jul-27 14:00N 14°28' W 060°52'0 0.0
2018-Jul-27 13:30N 14°28' W 060°52'0 0.0
2018-Jul-27 13:00N 14°28' W 060°52'0 0.0
2018-Jul-27 12:30N 14°28' W 060°52'0 0.0
2018-Jul-27 12:00N 14°28' W 060°52'0 0.0
2018-Jul-27 11:30N 14°28' W 060°52'0 0.0
2018-Jul-27 10:54N 14°28' W 060°52'0 0.0
2018-Jul-27 10:30N 14°28' W 060°52'0 0.0
2018-Jul-27 10:00N 14°28' W 060°52'0 0.0
2018-Jul-27 09:27N 14°28' W 060°52'0 0.0
2018-Jul-27 09:00N 14°28' W 060°52'0 0.0
2018-Jul-27 08:30N 14°28' W 060°52'0 0.0
2018-Jul-27 07:57N 14°28' W 060°52'0 0.0
2018-Jul-27 07:30N 14°28' W 060°52'0 0.0
2018-Jul-27 07:00N 14°28' W 060°52'0 0.0
2018-Jul-27 06:30N 14°28' W 060°52'0 0.0
2018-Jul-27 06:00N 14°28' W 060°52'0 0.0
2018-Jul-27 05:27N 14°28' W 060°52'0 0.0
2018-Jul-27 05:00N 14°28' W 060°52'0 0.0
2018-Jul-27 04:30N 14°28' W 060°52'0 0.0
2018-Jul-27 04:00N 14°28' W 060°52'0 0.0
2018-Jul-27 03:30N 14°28' W 060°52'0 0.0
2018-Jul-27 03:00N 14°28' W 060°52'0 0.0
2018-Jul-27 02:30N 14°28' W 060°52'0 0.0
2018-Jul-27 02:00N 14°28' W 060°52'0 0.0
2018-Jul-27 01:30N 14°28' W 060°52'0 0.0
2018-Jul-27 01:00N 14°28' W 060°52'0 0.0
2018-Jul-27 00:30N 14°28' W 060°52'0 0.0
2018-Jul-26 23:57N 14°28' W 060°52'0 0.0
2018-Jul-26 23:30N 14°28' W 060°52'0 0.0
2018-Jul-26 23:00N 14°28' W 060°52'0 0.0
2018-Jul-26 22:30N 14°28' W 060°52'0 0.0
2018-Jul-26 22:00N 14°28' W 060°52'0 0.0
2018-Jul-26 21:30N 14°28' W 060°52'0 0.0
2018-Jul-26 21:00N 14°28' W 060°52'0 0.0
2018-Jul-26 20:30N 14°28' W 060°52'0 0.0
2018-Jul-26 20:00N 14°28' W 060°52'0 0.0
2018-Jul-26 19:30N 14°28' W 060°52'0 0.0
2018-Jul-26 19:00N 14°28' W 060°52'0 0.0
2018-Jul-26 18:30N 14°28' W 060°52'0 0.0
2018-Jul-26 18:00N 14°28' W 060°52'0 0.0
2018-Jul-26 17:30N 14°28' W 060°52'0 0.0
2018-Jul-26 16:57N 14°28' W 060°52'0 0.0
2018-Jul-26 16:24N 14°28' W 060°52'0 0.0
2018-Jul-26 15:24N 14°28' W 060°52'0 0.0
2018-Jul-26 15:00N 14°28' W 060°52'0 0.0
2018-Jul-26 14:30N 14°28' W 060°52'0 0.0
2018-Jul-26 14:00N 14°28' W 060°52'0 0.0
2018-Jul-26 13:30N 14°28' W 060°52'0 0.0
2018-Jul-26 13:00N 14°28' W 060°52'0 0.0
2018-Jul-26 12:30N 14°28' W 060°52'0 0.0
2018-Jul-26 12:00N 14°28' W 060°52'0 0.0
2018-Jul-26 11:30N 14°28' W 060°52'0 0.0
2018-Jul-26 10:57N 14°28' W 060°52'0 0.0
2018-Jul-26 10:30N 14°28' W 060°52'0 0.0
2018-Jul-26 10:00N 14°28' W 060°52'0 0.0
2018-Jul-26 09:30N 14°28' W 060°52'0 0.0
2018-Jul-26 08:57N 14°28' W 060°52'0 0.0
2018-Jul-26 08:30N 14°28' W 060°52'0 0.0
2018-Jul-26 08:00N 14°28' W 060°52'0 0.0
2018-Jul-26 07:30N 14°28' W 060°52'0 0.0
2018-Jul-26 07:00N 14°28' W 060°52'0 0.0
2018-Jul-26 06:30N 14°28' W 060°52'0 0.0
2018-Jul-26 06:00N 14°28' W 060°52'0 0.0
2018-Jul-26 05:30N 14°28' W 060°52'0 0.0
2018-Jul-26 05:00N 14°28' W 060°52'0 0.0
2018-Jul-26 04:30N 14°28' W 060°52'0 0.0
2018-Jul-26 04:00N 14°28' W 060°52'0 0.0
2018-Jul-26 03:30N 14°28' W 060°52'0 0.0
2018-Jul-26 03:00N 14°28' W 060°52'0 0.0
2018-Jul-26 02:30N 14°28' W 060°52'0 0.0
2018-Jul-26 02:00N 14°28' W 060°52'0 0.0
2018-Jul-26 01:24N 14°28' W 060°52'0 0.0
2018-Jul-26 01:00N 14°28' W 060°52'0 0.0
2018-Jul-26 00:30N 14°28' W 060°52'0 0.0
2018-Jul-26 00:00N 14°28' W 060°52'0 0.0
2018-Jul-25 23:30N 14°28' W 060°52'0 0.0
2018-Jul-25 23:00N 14°28' W 060°52'0 0.0
2018-Jul-25 22:30N 14°28' W 060°52'0 0.0
2018-Jul-25 22:00N 14°28' W 060°52'0 0.0
2018-Jul-25 21:30N 14°28' W 060°52'0 0.0
2018-Jul-25 21:00N 14°28' W 060°52'0 0.0
2018-Jul-25 20:30N 14°28' W 060°52'0 0.0
2018-Jul-25 19:57N 14°28' W 060°52'0 0.0
2018-Jul-25 19:30N 14°28' W 060°52'0 0.0
2018-Jul-25 19:00N 14°28' W 060°52'0 0.0
2018-Jul-25 18:30N 14°28' W 060°52'0 0.0
2018-Jul-25 17:54N 14°28' W 060°52'0 0.0
2018-Jul-25 17:24N 14°28' W 060°52'0 0.0
2018-Jul-25 17:00N 14°28' W 060°52'0 0.0
2018-Jul-25 16:30N 14°28' W 060°52'0 0.0
2018-Jul-25 16:00N 14°28' W 060°52'0 0.0
2018-Jul-25 15:30N 14°28' W 060°52'0 0.0
2018-Jul-25 14:57N 14°28' W 060°52'0 0.0
2018-Jul-25 14:30N 14°28' W 060°52'0 0.0
2018-Jul-25 13:57N 14°28' W 060°52'0 0.0
2018-Jul-25 13:29N 14°28' W 060°52'0 0.0
2018-Jul-25 12:59N 14°28' W 060°52'0 0.0
2018-Jul-25 12:29N 14°28' W 060°52'0 0.0
2018-Jul-25 11:59N 14°28' W 060°52'0 0.0
2018-Jul-25 11:29N 14°28' W 060°52'0 0.0
2018-Jul-25 10:59N 14°28' W 060°52'0 0.0
2018-Jul-25 10:23N 14°28' W 060°52'0 0.0
2018-Jul-25 09:59N 14°28' W 060°52'0 0.0
2018-Jul-25 09:29N 14°28' W 060°52'0 0.0
2018-Jul-25 08:59N 14°28' W 060°52'0 0.0
2018-Jul-25 08:29N 14°28' W 060°52'0 0.0
2018-Jul-25 07:56N 14°28' W 060°52'0 0.0
2018-Jul-25 07:29N 14°28' W 060°52'0 0.0
2018-Jul-25 06:59N 14°28' W 060°52'0 0.0
2018-Jul-25 06:29N 14°28' W 060°52'0 0.0
2018-Jul-25 05:59N 14°28' W 060°52'0 0.0
2018-Jul-25 05:29N 14°28' W 060°52'0 0.0
2018-Jul-25 04:59N 14°28' W 060°52'0 0.0
2018-Jul-25 04:29N 14°28' W 060°52'0 0.0
2018-Jul-25 03:59N 14°28' W 060°52'0 0.0
2018-Jul-25 03:29N 14°28' W 060°52'0 0.0
2018-Jul-25 02:59N 14°28' W 060°52'0 0.0
2018-Jul-25 02:29N 14°28' W 060°52'0 0.0
2018-Jul-25 01:59N 14°28' W 060°52'0 0.0
2018-Jul-25 01:29N 14°28' W 060°52'0 0.0
2018-Jul-25 00:59N 14°28' W 060°52'0 0.0
2018-Jul-25 00:29N 14°28' W 060°52'0 0.0
2018-Jul-24 23:59N 14°28' W 060°52'0 0.0
2018-Jul-24 23:29N 14°28' W 060°52'0 0.0
2018-Jul-24 22:59N 14°28' W 060°52'0 0.0
2018-Jul-24 22:29N 14°28' W 060°52'0 0.0
2018-Jul-24 21:59N 14°28' W 060°52'0 0.8
2018-Jul-24 21:30N 14°27' W 060°53'4 7.2
2018-Jul-24 21:00N 14°26' W 060°56'  
Track history (hours):
 
Tides and Currents Weather Stations Pressure Air Temp Water Temp Dewpoint Dewpoint Depression Visibility Wind Speed Wind Dir Waves Ship Positions

Joy

Owner: Cros, Francois J, Miami, FL. More information available from US FCC via Universal Licensing System and Coast Guard Vessel Documentation Center.

Last reported at 2018-Aug-02 19:32 UTC. Time now 2018-Aug-17 11:43 UTC.
Position N 14°18' W 060°56'.
Warning: this ship's position is 14 days out of date.

Type: Sailing vessel. MMSI: 368007920.

Date/timePositionNaut miles runAvg speedWind from/ knotsBaromVisibWave heightAir tempDewpointWater temp
2018-Aug-02 19:32N 14°18' W 060°56'1 6.8
2018-Aug-02 19:26N 14°19' W 060°56'3 7.6
2018-Aug-02 19:00N 14°22' W 060°55'4 7.4
2018-Aug-02 18:30N 14°26' W 060°54'1 1.1
2018-Aug-02 17:56N 14°26' W 060°53'0 0.0
2018-Aug-02 17:29N 14°26' W 060°53'0 0.0
2018-Aug-02 16:59N 14°26' W 060°53'0 0.0
2018-Aug-02 16:29N 14°26' W 060°53'0 0.0
2018-Aug-02 15:59N 14°26' W 060°53'0 0.0
2018-Aug-02 15:30N 14°26' W 060°53'2 4.1
2018-Aug-02 15:00N 14°28' W 060°52'0 0.4
2018-Aug-02 14:29N 14°28' W 060°52'0 0.7
2018-Aug-02 13:57N 14°28' W 060°52'0 0.0
2018-Aug-02 13:30N 14°28' W 060°52'0 0.0
2018-Aug-02 13:00N 14°28' W 060°52'0 0.0
2018-Aug-02 12:30N 14°28' W 060°52'0 0.0
2018-Aug-02 12:00N 14°28' W 060°52'0 0.0
2018-Aug-02 11:30N 14°28' W 060°52'0 0.0
2018-Aug-02 11:00N 14°28' W 060°52'0 0.0
2018-Aug-02 10:27N 14°28' W 060°52'0 0.0
2018-Aug-02 09:57N 14°28' W 060°52'0 0.0
2018-Aug-02 09:30N 14°28' W 060°52'0 0.0
2018-Aug-02 08:57N 14°28' W 060°52'0 0.0
2018-Aug-02 08:27N 14°28' W 060°52'0 0.0
2018-Aug-02 08:00N 14°28' W 060°52'0 0.0
2018-Aug-02 07:30N 14°28' W 060°52'0 0.0
2018-Aug-02 07:00N 14°28' W 060°52'0 0.0
2018-Aug-02 06:27N 14°28' W 060°52'0 0.0
2018-Aug-02 05:57N 14°28' W 060°52'0 0.0
2018-Aug-02 05:27N 14°28' W 060°52'0 0.0
2018-Aug-02 04:54N 14°28' W 060°52'0 0.0
2018-Aug-02 04:27N 14°28' W 060°52'0 0.0
2018-Aug-02 04:00N 14°28' W 060°52'0 0.0
2018-Aug-02 03:30N 14°28' W 060°52'0 0.0
2018-Aug-02 02:57N 14°28' W 060°52'0 0.0
2018-Aug-02 02:30N 14°28' W 060°52'0 0.0
2018-Aug-02 02:00N 14°28' W 060°52'0 0.0
2018-Aug-02 01:30N 14°28' W 060°52'0 0.0
2018-Aug-02 00:57N 14°28' W 060°52'0 0.0
2018-Aug-02 00:30N 14°28' W 060°52'0 0.0
2018-Aug-02 00:00N 14°28' W 060°52'0 0.0
2018-Aug-01 23:30N 14°28' W 060°52'0 0.0
2018-Aug-01 22:57N 14°28' W 060°52'0 0.0
2018-Aug-01 22:27N 14°28' W 060°52'0 0.0
2018-Aug-01 22:00N 14°28' W 060°52'0 0.0
2018-Aug-01 21:27N 14°28' W 060°52'0 0.0
2018-Aug-01 21:00N 14°28' W 060°52'0 0.0
2018-Aug-01 20:30N 14°28' W 060°52'0 0.0
2018-Aug-01 20:00N 14°28' W 060°52'0 0.0
2018-Aug-01 19:30N 14°28' W 060°52'0 0.0
2018-Aug-01 19:00N 14°28' W 060°52'0 0.0
2018-Aug-01 18:27N 14°28' W 060°52'0 0.0
2018-Aug-01 18:00N 14°28' W 060°52'0 0.0
2018-Aug-01 17:30N 14°28' W 060°52'0 0.0
2018-Aug-01 16:57N 14°28' W 060°52'0 0.0
2018-Aug-01 16:30N 14°28' W 060°52'0 0.0
2018-Aug-01 16:00N 14°28' W 060°52'0 0.0
2018-Aug-01 15:30N 14°28' W 060°52'0 0.0
2018-Aug-01 15:00N 14°28' W 060°52'0 0.0
2018-Aug-01 13:57N 14°28' W 060°52'0 0.0
2018-Aug-01 13:30N 14°28' W 060°52'0 0.0
2018-Aug-01 12:57N 14°28' W 060°52'0 0.0
2018-Aug-01 12:30N 14°28' W 060°52'0 0.0
2018-Aug-01 12:00N 14°28' W 060°52'0 0.0
2018-Aug-01 11:30N 14°28' W 060°52'0 0.0
2018-Aug-01 11:00N 14°28' W 060°52'0 0.0
2018-Aug-01 10:30N 14°28' W 060°52'0 0.0
2018-Aug-01 10:00N 14°28' W 060°52'0 0.0
2018-Aug-01 09:30N 14°28' W 060°52'0 0.0
2018-Aug-01 09:00N 14°28' W 060°52'0 0.0
2018-Aug-01 08:27N 14°28' W 060°52'0 0.0
2018-Aug-01 08:00N 14°28' W 060°52'0 0.0
2018-Aug-01 07:30N 14°28' W 060°52'0 0.0
2018-Aug-01 07:00N 14°28' W 060°52'0 0.0
2018-Aug-01 06:30N 14°28' W 060°52'0 0.0
2018-Aug-01 06:00N 14°28' W 060°52'0 0.0
2018-Aug-01 05:24N 14°28' W 060°52'0 0.0
2018-Aug-01 04:54N 14°28' W 060°52'0 0.0
2018-Aug-01 04:27N 14°28' W 060°52'0 0.0
2018-Aug-01 04:00N 14°28' W 060°52'0 0.0
2018-Aug-01 03:27N 14°28' W 060°52'0 0.0
2018-Aug-01 02:57N 14°28' W 060°52'0 0.0
2018-Aug-01 02:30N 14°28' W 060°52'0 0.0
2018-Aug-01 01:54N 14°28' W 060°52'0 0.0
2018-Aug-01 01:30N 14°28' W 060°52'0 0.0
2018-Aug-01 01:00N 14°28' W 060°52'0 0.0
2018-Jul-31 22:30N 14°28' W 060°52'0 0.0
2018-Jul-31 22:00N 14°28' W 060°52'0 0.0
2018-Jul-31 21:30N 14°28' W 060°52'0 0.0
2018-Jul-31 21:00N 14°28' W 060°52'0 0.0
2018-Jul-31 20:30N 14°28' W 060°52'0 0.0
2018-Jul-31 20:00N 14°28' W 060°52'0 0.0
2018-Jul-31 19:30N 14°28' W 060°52'0 0.0
2018-Jul-31 18:57N 14°28' W 060°52'0 0.0
2018-Jul-31 18:30N 14°28' W 060°52'0 0.0
2018-Jul-31 18:00N 14°28' W 060°52'0 0.0
2018-Jul-31 17:30N 14°28' W 060°52'0 0.0
2018-Jul-31 17:00N 14°28' W 060°52'0 0.0
2018-Jul-31 16:30N 14°28' W 060°52'0 0.0
2018-Jul-31 16:00N 14°28' W 060°52'0 0.0
2018-Jul-31 15:27N 14°28' W 060°52'0 0.0
2018-Jul-31 15:00N 14°28' W 060°52'0 0.0
2018-Jul-31 14:27N 14°28' W 060°52'0 0.0
2018-Jul-31 14:00N 14°28' W 060°52'0 0.0
2018-Jul-31 13:30N 14°28' W 060°52'0 0.0
2018-Jul-31 12:45N 14°28' W 060°52'0 0.0
2018-Jul-31 12:30N 14°28' W 060°52'0 0.0
2018-Jul-31 12:00N 14°28' W 060°52'0 0.0
2018-Jul-31 11:27N 14°28' W 060°52'0 0.0
2018-Jul-31 11:00N 14°28' W 060°52'0 0.0
2018-Jul-31 10:27N 14°28' W 060°52'0 0.0
2018-Jul-31 09:57N 14°28' W 060°52'0 0.0
2018-Jul-31 09:15N 14°28' W 060°52'0 0.0
2018-Jul-31 08:48N 14°28' W 060°52'0 0.0
2018-Jul-31 08:30N 14°28' W 060°52'0 0.0
2018-Jul-31 07:57N 14°28' W 060°52'0 0.0
2018-Jul-31 07:30N 14°28' W 060°52'0 0.0
2018-Jul-31 06:57N 14°28' W 060°52'0 0.0
2018-Jul-31 06:30N 14°28' W 060°52'0 0.0
2018-Jul-31 06:00N 14°28' W 060°52'0 0.0
2018-Jul-31 05:27N 14°28' W 060°52'0 0.0
2018-Jul-31 05:00N 14°28' W 060°52'0 0.0
2018-Jul-31 04:30N 14°28' W 060°52'0 0.0
2018-Jul-31 03:57N 14°28' W 060°52'0 0.0
2018-Jul-31 03:27N 14°28' W 060°52'0 0.0
2018-Jul-31 03:00N 14°28' W 060°52'0 0.0
2018-Jul-31 02:30N 14°28' W 060°52'0 0.0
2018-Jul-31 02:00N 14°28' W 060°52'0 0.0
2018-Jul-31 01:30N 14°28' W 060°52'0 0.0
2018-Jul-31 01:00N 14°28' W 060°52'0 0.0
2018-Jul-31 00:30N 14°28' W 060°52'0 0.0
2018-Jul-30 23:57N 14°28' W 060°52'0 0.0
2018-Jul-30 23:30N 14°28' W 060°52'0 0.0
2018-Jul-30 23:00N 14°28' W 060°52'0 0.0
2018-Jul-30 22:27N 14°28' W 060°52'0 0.0
2018-Jul-30 22:00N 14°28' W 060°52'0 0.0
2018-Jul-30 21:30N 14°28' W 060°52'0 0.0
2018-Jul-30 20:54N 14°28' W 060°52'0 0.0
2018-Jul-30 20:30N 14°28' W 060°52'0 0.0
2018-Jul-30 20:00N 14°28' W 060°52'0 0.0
2018-Jul-30 19:30N 14°28' W 060°52'0 0.0
2018-Jul-30 19:00N 14°28' W 060°52'0 0.0
2018-Jul-30 18:30N 14°28' W 060°52'0 0.0
2018-Jul-30 18:00N 14°28' W 060°52'0 0.0
2018-Jul-30 17:30N 14°28' W 060°52'0 0.0
2018-Jul-30 17:00N 14°28' W 060°52'0 0.0
2018-Jul-30 16:30N 14°28' W 060°52'0 0.0
2018-Jul-30 15:45N 14°28' W 060°52'0 0.0
2018-Jul-30 15:30N 14°28' W 060°52'0 0.0
2018-Jul-30 15:00N 14°28' W 060°52'0 0.0
2018-Jul-30 14:30N 14°28' W 060°52'0 0.0
2018-Jul-30 14:00N 14°28' W 060°52'0 0.0
2018-Jul-30 13:30N 14°28' W 060°52'0 0.0
2018-Jul-30 13:00N 14°28' W 060°52'0 0.0
2018-Jul-30 12:30N 14°28' W 060°52'0 0.0
2018-Jul-30 12:00N 14°28' W 060°52'0 0.0
2018-Jul-30 11:30N 14°28' W 060°52'0 0.0
2018-Jul-30 10:57N 14°28' W 060°52'0 0.0
2018-Jul-30 10:27N 14°28' W 060°52'0 0.0
2018-Jul-30 10:00N 14°28' W 060°52'0 0.0
2018-Jul-30 09:30N 14°28' W 060°52'0 0.0
2018-Jul-30 08:57N 14°28' W 060°52'0 0.0
2018-Jul-30 08:30N 14°28' W 060°52'0 0.0
2018-Jul-30 08:00N 14°28' W 060°52'0 0.0
2018-Jul-30 07:30N 14°28' W 060°52'0 0.0
2018-Jul-30 07:00N 14°28' W 060°52'0 0.0
2018-Jul-30 06:27N 14°28' W 060°52'0 0.0
2018-Jul-30 06:00N 14°28' W 060°52'0 0.0
2018-Jul-30 05:30N 14°28' W 060°52'0 0.0
2018-Jul-30 05:00N 14°28' W 060°52'0 0.0
2018-Jul-30 04:30N 14°28' W 060°52'0 0.0
2018-Jul-30 04:00N 14°28' W 060°52'0 0.0
2018-Jul-30 03:30N 14°28' W 060°52'0 0.0
2018-Jul-30 03:00N 14°28' W 060°52'0 0.0
2018-Jul-30 02:30N 14°28' W 060°52'0 0.0
2018-Jul-30 02:00N 14°28' W 060°52'0 0.0
2018-Jul-30 01:30N 14°28' W 060°52'0 0.0
2018-Jul-30 00:57N 14°28' W 060°52'0 0.0
2018-Jul-30 00:30N 14°28' W 060°52'0 0.0
2018-Jul-30 00:00N 14°28' W 060°52'0 0.0
2018-Jul-29 23:27N 14°28' W 060°52'0 0.0
2018-Jul-29 23:00N 14°28' W 060°52'0 0.0
2018-Jul-29 22:27N 14°28' W 060°52'0 0.0
2018-Jul-29 22:00N 14°28' W 060°52'0 0.0
2018-Jul-29 21:30N 14°28' W 060°52'0 0.0
2018-Jul-29 21:00N 14°28' W 060°52'1 2.9
2018-Jul-29 20:30N 14°27' W 060°54'1 1.4
2018-Jul-29 19:58N 14°26' W 060°53'0 0.0
2018-Jul-29 19:28N 14°26' W 060°53'0 0.0
2018-Jul-29 18:58N 14°26' W 060°53'0 0.0
2018-Jul-29 18:28N 14°26' W 060°53'0 0.0
2018-Jul-29 17:58N 14°26' W 060°53'0 0.0
2018-Jul-29 17:28N 14°26' W 060°53'0 0.0
2018-Jul-29 16:55N 14°26' W 060°53'0 0.0
2018-Jul-29 16:28N 14°26' W 060°53'0 0.0
2018-Jul-29 15:58N 14°26' W 060°53'0 0.0
2018-Jul-29 15:28N 14°26' W 060°53'0 0.0
2018-Jul-29 14:58N 14°26' W 060°53'0 0.0
2018-Jul-29 13:58N 14°26' W 060°53'0 0.0
2018-Jul-29 13:28N 14°26' W 060°53'0 0.0
2018-Jul-29 12:58N 14°26' W 060°53'0 0.0
2018-Jul-29 12:28N 14°26' W 060°53'0 0.0
2018-Jul-29 11:58N 14°26' W 060°53'0 0.0
2018-Jul-29 11:28N 14°26' W 060°53'0 0.0
2018-Jul-29 10:58N 14°26' W 060°53'0 0.0
2018-Jul-29 10:28N 14°26' W 060°53'0 0.0
2018-Jul-29 09:58N 14°26' W 060°53'0 0.0
2018-Jul-29 09:25N 14°26' W 060°53'0 0.0
2018-Jul-29 08:58N 14°26' W 060°53'0 0.0
2018-Jul-29 08:28N 14°26' W 060°53'0 0.0
2018-Jul-29 07:55N 14°26' W 060°53'0 0.0
2018-Jul-29 07:28N 14°26' W 060°53'0 0.0
2018-Jul-29 06:58N 14°26' W 060°53'0 0.0
2018-Jul-29 06:28N 14°26' W 060°53'0 0.0
2018-Jul-29 05:58N 14°26' W 060°53'0 0.0
2018-Jul-29 05:28N 14°26' W 060°53'0 0.0
2018-Jul-29 04:58N 14°26' W 060°53'0 0.0
2018-Jul-29 04:28N 14°26' W 060°53'0 0.0
2018-Jul-29 03:58N 14°26' W 060°53'0 0.0
2018-Jul-29 03:28N 14°26' W 060°53'0 0.0
2018-Jul-29 02:58N 14°26' W 060°53'0 0.0
2018-Jul-29 02:25N 14°26' W 060°53'0 0.0
2018-Jul-29 01:55N 14°26' W 060°53'0 0.0
2018-Jul-29 01:28N 14°26' W 060°53'0 0.0
2018-Jul-29 00:58N 14°26' W 060°53'0 0.0
2018-Jul-29 00:28N 14°26' W 060°53'0 0.0
2018-Jul-28 23:58N 14°26' W 060°53'0 0.0
2018-Jul-28 23:25N 14°26' W 060°53'0 0.0
2018-Jul-28 22:58N 14°26' W 060°53'0 0.0
2018-Jul-28 22:28N 14°26' W 060°53'0 0.0
2018-Jul-28 21:55N 14°26' W 060°53'0 0.0
2018-Jul-28 21:28N 14°26' W 060°53'0 0.0
2018-Jul-28 20:58N 14°26' W 060°53'0 0.0
2018-Jul-28 20:28N 14°26' W 060°53'0 0.0
2018-Jul-28 19:58N 14°26' W 060°53'0 0.0
2018-Jul-28 19:28N 14°26' W 060°53'0 0.0
2018-Jul-28 18:58N 14°26' W 060°53'0 0.0
2018-Jul-28 18:28N 14°26' W 060°53'0 0.0
2018-Jul-28 17:58N 14°26' W 060°53'0 0.0
2018-Jul-28 17:28N 14°26' W 060°53'0 0.0
2018-Jul-28 16:58N 14°26' W 060°53'0 0.0
2018-Jul-28 16:28N 14°26' W 060°53'0 0.0
2018-Jul-28 15:46N 14°26' W 060°53'1 3.1
2018-Jul-28 15:30N 14°27' W 060°54'1 2.8
2018-Jul-28 15:00N 14°28' W 060°52'0 0.0
2018-Jul-28 14:30N 14°28' W 060°52'0 0.0
2018-Jul-28 13:58N 14°28' W 060°52'0 0.0
2018-Jul-28 13:30N 14°28' W 060°52'0 0.0
2018-Jul-28 13:00N 14°28' W 060°52'0 0.0
2018-Jul-28 12:30N 14°28' W 060°52'0 0.0
2018-Jul-28 12:00N 14°28' W 060°52'0 0.0
2018-Jul-28 11:31N 14°28' W 060°52'0 0.0
2018-Jul-28 11:00N 14°28' W 060°52'0 0.0
2018-Jul-28 10:30N 14°28' W 060°52'0 0.0
2018-Jul-28 10:00N 14°28' W 060°52'0 0.0
2018-Jul-28 09:30N 14°28' W 060°52'0 0.0
2018-Jul-28 09:01N 14°28' W 060°52'0 0.0
2018-Jul-28 08:25N 14°28' W 060°52'0 0.0
2018-Jul-28 08:00N 14°28' W 060°52'0 0.0
2018-Jul-28 07:31N 14°28' W 060°52'0 0.0
2018-Jul-28 07:00N 14°28' W 060°52'0 0.0
2018-Jul-28 06:30N 14°28' W 060°52'0 0.0
2018-Jul-28 06:00N 14°28' W 060°52'0 0.0
2018-Jul-28 05:30N 14°28' W 060°52'0 0.0
2018-Jul-28 05:00N 14°28' W 060°52'0 0.0
2018-Jul-28 04:30N 14°28' W 060°52'0 0.0
2018-Jul-28 04:00N 14°28' W 060°52'0 0.0
2018-Jul-28 03:30N 14°28' W 060°52'0 0.0
2018-Jul-28 03:00N 14°28' W 060°52'0 0.0
2018-Jul-28 02:30N 14°28' W 060°52'0 0.0
2018-Jul-28 02:00N 14°28' W 060°52'0 0.0
2018-Jul-28 01:21N 14°28' W 060°52'0 0.0
2018-Jul-28 01:00N 14°28' W 060°52'0 0.0
2018-Jul-28 00:30N 14°28' W 060°52'0 0.0
2018-Jul-28 00:00N 14°28' W 060°52'0 0.0
2018-Jul-27 23:30N 14°28' W 060°52'0 0.0
2018-Jul-27 23:00N 14°28' W 060°52'0 0.0
2018-Jul-27 22:30N 14°28' W 060°52'0 0.0
2018-Jul-27 22:00N 14°28' W 060°52'0 0.0
2018-Jul-27 21:30N 14°28' W 060°52'0 0.0
2018-Jul-27 21:00N 14°28' W 060°52'0 0.0
2018-Jul-27 20:30N 14°28' W 060°52'0 0.0
2018-Jul-27 20:00N 14°28' W 060°52'0 0.0
2018-Jul-27 19:30N 14°28' W 060°52'0 0.0
2018-Jul-27 18:57N 14°28' W 060°52'0 0.0
2018-Jul-27 18:27N 14°28' W 060°52'0 0.0
2018-Jul-27 17:54N 14°28' W 060°52'0 0.0
2018-Jul-27 17:30N 14°28' W 060°52'0 0.0
2018-Jul-27 17:00N 14°28' W 060°52'0 0.0
2018-Jul-27 16:30N 14°28' W 060°52'0 0.0
2018-Jul-27 16:00N 14°28' W 060°52'0 0.0
2018-Jul-27 15:30N 14°28' W 060°52'0 0.0
2018-Jul-27 15:00N 14°28' W 060°52'0 0.0
2018-Jul-27 14:30N 14°28' W 060°52'0 0.0
2018-Jul-27 14:00N 14°28' W 060°52'0 0.0
2018-Jul-27 13:30N 14°28' W 060°52'0 0.0
2018-Jul-27 13:00N 14°28' W 060°52'0 0.0
2018-Jul-27 12:30N 14°28' W 060°52'0 0.0
2018-Jul-27 12:00N 14°28' W 060°52'0 0.0
2018-Jul-27 11:30N 14°28' W 060°52'0 0.0
2018-Jul-27 10:54N 14°28' W 060°52'0 0.0
2018-Jul-27 10:30N 14°28' W 060°52'0 0.0
2018-Jul-27 10:00N 14°28' W 060°52'0 0.0
2018-Jul-27 09:27N 14°28' W 060°52'0 0.0
2018-Jul-27 09:00N 14°28' W 060°52'0 0.0
2018-Jul-27 08:30N 14°28' W 060°52'0 0.0
2018-Jul-27 07:57N 14°28' W 060°52'0 0.0
2018-Jul-27 07:30N 14°28' W 060°52'0 0.0
2018-Jul-27 07:00N 14°28' W 060°52'0 0.0
2018-Jul-27 06:30N 14°28' W 060°52'0 0.0
2018-Jul-27 06:00N 14°28' W 060°52'0 0.0
2018-Jul-27 05:27N 14°28' W 060°52'0 0.0
2018-Jul-27 05:00N 14°28' W 060°52'0 0.0
2018-Jul-27 04:30N 14°28' W 060°52'0 0.0
2018-Jul-27 04:00N 14°28' W 060°52'0 0.0
2018-Jul-27 03:30N 14°28' W 060°52'0 0.0
2018-Jul-27 03:00N 14°28' W 060°52'0 0.0
2018-Jul-27 02:30N 14°28' W 060°52'0 0.0
2018-Jul-27 02:00N 14°28' W 060°52'0 0.0
2018-Jul-27 01:30N 14°28' W 060°52'0 0.0
2018-Jul-27 01:00N 14°28' W 060°52'0 0.0
2018-Jul-27 00:30N 14°28' W 060°52'0 0.0
2018-Jul-26 23:57N 14°28' W 060°52'0 0.0
2018-Jul-26 23:30N 14°28' W 060°52'0 0.0
2018-Jul-26 23:00N 14°28' W 060°52'0 0.0
2018-Jul-26 22:30N 14°28' W 060°52'0 0.0
2018-Jul-26 22:00N 14°28' W 060°52'0 0.0
2018-Jul-26 21:30N 14°28' W 060°52'0 0.0
2018-Jul-26 21:00N 14°28' W 060°52'0 0.0
2018-Jul-26 20:30N 14°28' W 060°52'0 0.0
2018-Jul-26 20:00N 14°28' W 060°52'0 0.0
2018-Jul-26 19:30N 14°28' W 060°52'0 0.0
2018-Jul-26 19:00N 14°28' W 060°52'0 0.0
2018-Jul-26 18:30N 14°28' W 060°52'0 0.0
2018-Jul-26 18:00N 14°28' W 060°52'0 0.0
2018-Jul-26 17:30N 14°28' W 060°52'0 0.0
2018-Jul-26 16:57N 14°28' W 060°52'0 0.0
2018-Jul-26 16:24N 14°28' W 060°52'0 0.0
2018-Jul-26 15:24N 14°28' W 060°52'0 0.0
2018-Jul-26 15:00N 14°28' W 060°52'0 0.0
2018-Jul-26 14:30N 14°28' W 060°52'0 0.0
2018-Jul-26 14:00N 14°28' W 060°52'0 0.0
2018-Jul-26 13:30N 14°28' W 060°52'0 0.0
2018-Jul-26 13:00N 14°28' W 060°52'0 0.0
2018-Jul-26 12:30N 14°28' W 060°52'0 0.0
2018-Jul-26 12:00N 14°28' W 060°52'0 0.0
2018-Jul-26 11:30N 14°28' W 060°52'0 0.0
2018-Jul-26 10:57N 14°28' W 060°52'0 0.0
2018-Jul-26 10:30N 14°28' W 060°52'0 0.0
2018-Jul-26 10:00N 14°28' W 060°52'0 0.0
2018-Jul-26 09:30N 14°28' W 060°52'0 0.0
2018-Jul-26 08:57N 14°28' W 060°52'0 0.0
2018-Jul-26 08:30N 14°28' W 060°52'0 0.0
2018-Jul-26 08:00N 14°28' W 060°52'0 0.0
2018-Jul-26 07:30N 14°28' W 060°52'0 0.0
2018-Jul-26 07:00N 14°28' W 060°52'0 0.0
2018-Jul-26 06:30N 14°28' W 060°52'0 0.0
2018-Jul-26 06:00N 14°28' W 060°52'0 0.0
2018-Jul-26 05:30N 14°28' W 060°52'0 0.0
2018-Jul-26 05:00N 14°28' W 060°52'0 0.0
2018-Jul-26 04:30N 14°28' W 060°52'0 0.0
2018-Jul-26 04:00N 14°28' W 060°52'0 0.0
2018-Jul-26 03:30N 14°28' W 060°52'0 0.0
2018-Jul-26 03:00N 14°28' W 060°52'0 0.0
2018-Jul-26 02:30N 14°28' W 060°52'0 0.0
2018-Jul-26 02:00N 14°28' W 060°52'0 0.0
2018-Jul-26 01:24N 14°28' W 060°52'0 0.0
2018-Jul-26 01:00N 14°28' W 060°52'0 0.0
2018-Jul-26 00:30N 14°28' W 060°52'0 0.0
2018-Jul-26 00:00N 14°28' W 060°52'0 0.0
2018-Jul-25 23:30N 14°28' W 060°52'0 0.0
2018-Jul-25 23:00N 14°28' W 060°52'0 0.0
2018-Jul-25 22:30N 14°28' W 060°52'0 0.0
2018-Jul-25 22:00N 14°28' W 060°52'0 0.0
2018-Jul-25 21:30N 14°28' W 060°52'0 0.0
2018-Jul-25 21:00N 14°28' W 060°52'0 0.0
2018-Jul-25 20:30N 14°28' W 060°52'0 0.0
2018-Jul-25 19:57N 14°28' W 060°52'0 0.0
2018-Jul-25 19:30N 14°28' W 060°52'0 0.0
2018-Jul-25 19:00N 14°28' W 060°52'0 0.0
2018-Jul-25 18:30N 14°28' W 060°52'0 0.0
2018-Jul-25 17:54N 14°28' W 060°52'0 0.0
2018-Jul-25 17:24N 14°28' W 060°52'0 0.0
2018-Jul-25 17:00N 14°28' W 060°52'0 0.0
2018-Jul-25 16:30N 14°28' W 060°52'0 0.0
2018-Jul-25 16:00N 14°28' W 060°52'0 0.0
2018-Jul-25 15:30N 14°28' W 060°52'0 0.0
2018-Jul-25 14:57N 14°28' W 060°52'0 0.0
2018-Jul-25 14:30N 14°28' W 060°52'0 0.0
2018-Jul-25 13:57N 14°28' W 060°52'0 0.0
2018-Jul-25 13:29N 14°28' W 060°52'0 0.0
2018-Jul-25 12:59N 14°28' W 060°52'0 0.0
2018-Jul-25 12:29N 14°28' W 060°52'0 0.0
2018-Jul-25 11:59N 14°28' W 060°52'0 0.0
2018-Jul-25 11:29N 14°28' W 060°52'0 0.0
2018-Jul-25 10:59N 14°28' W 060°52'0 0.0
2018-Jul-25 10:23N 14°28' W 060°52'0 0.0
2018-Jul-25 09:59N 14°28' W 060°52'0 0.0
2018-Jul-25 09:29N 14°28' W 060°52'0 0.0
2018-Jul-25 08:59N 14°28' W 060°52'0 0.0
2018-Jul-25 08:29N 14°28' W 060°52'0 0.0
2018-Jul-25 07:56N 14°28' W 060°52'0 0.0
2018-Jul-25 07:29N 14°28' W 060°52'0 0.0
2018-Jul-25 06:59N 14°28' W 060°52'0 0.0
2018-Jul-25 06:29N 14°28' W 060°52'0 0.0
2018-Jul-25 05:59N 14°28' W 060°52'0 0.0
2018-Jul-25 05:29N 14°28' W 060°52'0 0.0
2018-Jul-25 04:59N 14°28' W 060°52'0 0.0
2018-Jul-25 04:29N 14°28' W 060°52'0 0.0
2018-Jul-25 03:59N 14°28' W 060°52'0 0.0
2018-Jul-25 03:29N 14°28' W 060°52'0 0.0
2018-Jul-25 02:59N 14°28' W 060°52'0 0.0
2018-Jul-25 02:29N 14°28' W 060°52'0 0.0
2018-Jul-25 01:59N 14°28' W 060°52'0 0.0
2018-Jul-25 01:29N 14°28' W 060°52'0 0.0
2018-Jul-25 00:59N 14°28' W 060°52'0 0.0
2018-Jul-25 00:29N 14°28' W 060°52'0 0.0
2018-Jul-24 23:59N 14°28' W 060°52'0 0.0
2018-Jul-24 23:29N 14°28' W 060°52'0 0.0
2018-Jul-24 22:59N 14°28' W 060°52'0 0.0
2018-Jul-24 22:29N 14°28' W 060°52'0 0.0
2018-Jul-24 21:59N 14°28' W 060°52'0 0.8
2018-Jul-24 21:30N 14°27' W 060°53'4 7.2
2018-Jul-24 21:00N 14°26' W 060°56'  

Dump ship's entire track history